Terminal Aerodrome Forecast
Issued by NWS

Home | Current Version | Previous Version | Text Only | Print | Product List | Glossary On
Versions: 1 2 3 4 5 6 7 8 9 10 11 12
000
FTUS45 KRIW 162321
TAFPNA
TAF
KPNA 162321Z 1700/1724 30009KT P6SM SCT070 BKN100
     FM170200 30004KT P6SM FEW080 SCT150
     FM171700 29008KT P6SM SCT150
     FM172100 29014KT P6SM SCT150
      AMD LTD TO CLD VIS AND WIND=

USA.gov is the U.S. government's official web portal to all federal, state and local government web resources and services.